sensor_id;sensor_type;location;lat;lon;timestamp;P1;durP1;ratioP1;P2;durP2;ratioP2
665;SDS011;315;48.738;9.126;2022-10-16T00:00:43;5.50;;;3.80;;
665;SDS011;315;48.738;9.126;2022-10-16T00:03:09;3.20;;;2.67;;
665;SDS011;315;48.738;9.126;2022-10-16T00:05:39;10.43;;;4.13;;
665;SDS011;315;48.738;9.126;2022-10-16T00:08:07;3.10;;;2.83;;
665;SDS011;315;48.738;9.126;2022-10-16T00:10:33;5.17;;;3.70;;
665;SDS011;315;48.738;9.126;2022-10-16T00:12:58;3.73;;;3.30;;
665;SDS011;315;48.738;9.126;2022-10-16T00:15:24;3.60;;;3.10;;
665;SDS011;315;48.738;9.126;2022-10-16T00:17:50;4.03;;;3.63;;
665;SDS011;315;48.738;9.126;2022-10-16T00:20:15;4.37;;;3.67;;
665;SDS011;315;48.738;9.126;2022-10-16T00:22:41;3.83;;;3.27;;
665;SDS011;315;48.738;9.126;2022-10-16T00:25:06;3.20;;;2.87;;
665;SDS011;315;48.738;9.126;2022-10-16T00:27:32;2.37;;;2.10;;
665;SDS011;315;48.738;9.126;2022-10-16T00:29:58;4.00;;;2.37;;
665;SDS011;315;48.738;9.126;2022-10-16T00:32:24;3.30;;;3.00;;
665;SDS011;315;48.738;9.126;2022-10-16T00:34:50;4.20;;;2.73;;
665;SDS011;315;48.738;9.126;2022-10-16T00:37:15;3.23;;;2.93;;
665;SDS011;315;48.738;9.126;2022-10-16T00:39:41;7.47;;;3.17;;
665;SDS011;315;48.738;9.126;2022-10-16T00:42:06;3.53;;;3.20;;
665;SDS011;315;48.738;9.126;2022-10-16T00:44:43;2.63;;;2.43;;
665;SDS011;315;48.738;9.126;2022-10-16T00:47:18;3.30;;;3.03;;
665;SDS011;315;48.738;9.126;2022-10-16T00:49:51;10.63;;;3.70;;
665;SDS011;315;48.738;9.126;2022-10-16T00:52:24;9.50;;;7.30;;
665;SDS011;315;48.738;9.126;2022-10-16T00:54:50;7.30;;;4.93;;
665;SDS011;315;48.738;9.126;2022-10-16T00:57:18;2.70;;;2.50;;
665;SDS011;315;48.738;9.126;2022-10-16T00:59:44;2.70;;;2.30;;
665;SDS011;315;48.738;9.126;2022-10-16T01:02:11;3.10;;;2.17;;
665;SDS011;315;48.738;9.126;2022-10-16T01:04:57;2.70;;;2.00;;
665;SDS011;315;48.738;9.126;2022-10-16T01:07:30;3.40;;;1.83;;
665;SDS011;315;48.738;9.126;2022-10-16T01:13:06;3.50;;;2.60;;
665;SDS011;315;48.738;9.126;2022-10-16T01:15:40;7.10;;;4.00;;
665;SDS011;315;48.738;9.126;2022-10-16T01:20:47;3.23;;;2.27;;
665;SDS011;315;48.738;9.126;2022-10-16T01:28:10;3.27;;;2.20;;
665;SDS011;315;48.738;9.126;2022-10-16T01:30:37;3.83;;;2.20;;
665;SDS011;315;48.738;9.126;2022-10-16T01:33:17;2.07;;;1.97;;
665;SDS011;315;48.738;9.126;2022-10-16T01:35:46;2.10;;;2.00;;
665;SDS011;315;48.738;9.126;2022-10-16T01:38:18;4.57;;;1.80;;
665;SDS011;315;48.738;9.126;2022-10-16T01:40:52;2.30;;;2.10;;
665;SDS011;315;48.738;9.126;2022-10-16T01:43:27;4.83;;;2.07;;
665;SDS011;315;48.738;9.126;2022-10-16T01:46:02;2.33;;;2.13;;
665;SDS011;315;48.738;9.126;2022-10-16T01:48:28;3.10;;;2.80;;
665;SDS011;315;48.738;9.126;2022-10-16T01:50:58;2.63;;;2.30;;
665;SDS011;315;48.738;9.126;2022-10-16T01:53:37;2.20;;;2.00;;
665;SDS011;315;48.738;9.126;2022-10-16T01:56:09;4.87;;;2.90;;
665;SDS011;315;48.738;9.126;2022-10-16T01:58:42;2.73;;;2.30;;
665;SDS011;315;48.738;9.126;2022-10-16T02:01:13;4.83;;;2.63;;
665;SDS011;315;48.738;9.126;2022-10-16T02:03:41;3.20;;;2.80;;
665;SDS011;315;48.738;9.126;2022-10-16T02:06:09;4.70;;;2.53;;
665;SDS011;315;48.738;9.126;2022-10-16T02:08:35;4.33;;;2.53;;
665;SDS011;315;48.738;9.126;2022-10-16T02:11:01;2.43;;;2.23;;
665;SDS011;315;48.738;9.126;2022-10-16T02:13:35;3.93;;;2.80;;
665;SDS011;315;48.738;9.126;2022-10-16T02:16:06;4.67;;;2.70;;
665;SDS011;315;48.738;9.126;2022-10-16T02:18:32;5.43;;;2.73;;
665;SDS011;315;48.738;9.126;2022-10-16T02:20:59;2.90;;;2.10;;
665;SDS011;315;48.738;9.126;2022-10-16T02:26:42;4.87;;;2.60;;
665;SDS011;315;48.738;9.126;2022-10-16T02:29:14;4.70;;;2.10;;
665;SDS011;315;48.738;9.126;2022-10-16T02:31:43;3.33;;;2.03;;
665;SDS011;315;48.738;9.126;2022-10-16T02:34:13;4.70;;;2.50;;
665;SDS011;315;48.738;9.126;2022-10-16T02:36:41;4.83;;;2.63;;
665;SDS011;315;48.738;9.126;2022-10-16T02:39:07;2.80;;;2.20;;
665;SDS011;315;48.738;9.126;2022-10-16T02:41:33;2.70;;;2.50;;
665;SDS011;315;48.738;9.126;2022-10-16T02:43:59;4.20;;;3.17;;
665;SDS011;315;48.738;9.126;2022-10-16T02:46:24;2.73;;;2.47;;
665;SDS011;315;48.738;9.126;2022-10-16T02:48:50;6.07;;;2.63;;
665;SDS011;315;48.738;9.126;2022-10-16T02:51:15;3.10;;;2.70;;
665;SDS011;315;48.738;9.126;2022-10-16T02:53:41;3.40;;;2.27;;
665;SDS011;315;48.738;9.126;2022-10-16T02:56:06;2.10;;;1.67;;
665;SDS011;315;48.738;9.126;2022-10-16T02:58:32;3.50;;;2.20;;
665;SDS011;315;48.738;9.126;2022-10-16T03:00:57;3.20;;;2.10;;
665;SDS011;315;48.738;9.126;2022-10-16T03:03:23;2.77;;;2.57;;
665;SDS011;315;48.738;9.126;2022-10-16T03:05:49;3.47;;;3.17;;
665;SDS011;315;48.738;9.126;2022-10-16T03:08:14;2.83;;;2.50;;
665;SDS011;315;48.738;9.126;2022-10-16T03:10:40;4.57;;;2.60;;
665;SDS011;315;48.738;9.126;2022-10-16T03:13:06;7.17;;;2.43;;
665;SDS011;315;48.738;9.126;2022-10-16T03:15:31;2.63;;;2.07;;
665;SDS011;315;48.738;9.126;2022-10-16T03:17:57;3.60;;;2.57;;
665;SDS011;315;48.738;9.126;2022-10-16T03:20:23;8.83;;;3.30;;
665;SDS011;315;48.738;9.126;2022-10-16T03:22:49;2.23;;;2.03;;
665;SDS011;315;48.738;9.126;2022-10-16T03:25:15;6.10;;;2.70;;
665;SDS011;315;48.738;9.126;2022-10-16T03:27:41;7.60;;;2.90;;
665;SDS011;315;48.738;9.126;2022-10-16T03:30:06;2.40;;;1.90;;
665;SDS011;315;48.738;9.126;2022-10-16T03:32:32;2.67;;;1.90;;
665;SDS011;315;48.738;9.126;2022-10-16T03:34:58;6.20;;;2.40;;
665;SDS011;315;48.738;9.126;2022-10-16T03:37:23;6.37;;;2.03;;
665;SDS011;315;48.738;9.126;2022-10-16T03:39:49;1.80;;;1.67;;
665;SDS011;315;48.738;9.126;2022-10-16T03:42:15;3.33;;;2.23;;
665;SDS011;315;48.738;9.126;2022-10-16T03:44:40;4.67;;;2.40;;
665;SDS011;315;48.738;9.126;2022-10-16T03:47:06;2.83;;;2.63;;
665;SDS011;315;48.738;9.126;2022-10-16T03:49:31;3.27;;;2.33;;
665;SDS011;315;48.738;9.126;2022-10-16T03:51:57;2.90;;;2.70;;
665;SDS011;315;48.738;9.126;2022-10-16T03:54:22;5.20;;;2.23;;
665;SDS011;315;48.738;9.126;2022-10-16T03:56:48;3.13;;;2.13;;
665;SDS011;315;48.738;9.126;2022-10-16T03:59:13;3.93;;;2.30;;
665;SDS011;315;48.738;9.126;2022-10-16T04:01:39;3.60;;;2.57;;
665;SDS011;315;48.738;9.126;2022-10-16T04:04:05;4.97;;;2.30;;
665;SDS011;315;48.738;9.126;2022-10-16T04:06:30;3.77;;;2.47;;
665;SDS011;315;48.738;9.126;2022-10-16T04:08:56;2.40;;;2.20;;
665;SDS011;315;48.738;9.126;2022-10-16T04:11:21;2.00;;;1.90;;
665;SDS011;315;48.738;9.126;2022-10-16T04:13:47;2.00;;;1.90;;
665;SDS011;315;48.738;9.126;2022-10-16T04:16:13;4.27;;;2.30;;
665;SDS011;315;48.738;9.126;2022-10-16T04:18:38;2.57;;;2.37;;
665;SDS011;315;48.738;9.126;2022-10-16T04:21:05;3.27;;;2.33;;
665;SDS011;315;48.738;9.126;2022-10-16T04:23:31;2.40;;;2.20;;
665;SDS011;315;48.738;9.126;2022-10-16T04:25:57;4.53;;;2.50;;
665;SDS011;315;48.738;9.126;2022-10-16T04:28:23;2.40;;;2.20;;
665;SDS011;315;48.738;9.126;2022-10-16T04:30:48;2.93;;;2.07;;
665;SDS011;315;48.738;9.126;2022-10-16T04:33:14;2.80;;;2.50;;
665;SDS011;315;48.738;9.126;2022-10-16T04:35:39;2.27;;;2.07;;
665;SDS011;315;48.738;9.126;2022-10-16T04:38:05;2.53;;;2.10;;
665;SDS011;315;48.738;9.126;2022-10-16T04:40:30;3.07;;;2.10;;
665;SDS011;315;48.738;9.126;2022-10-16T04:42:58;3.07;;;2.77;;
665;SDS011;315;48.738;9.126;2022-10-16T04:45:24;4.90;;;2.60;;
665;SDS011;315;48.738;9.126;2022-10-16T04:47:50;3.37;;;2.60;;
665;SDS011;315;48.738;9.126;2022-10-16T04:50:15;6.23;;;2.40;;
665;SDS011;315;48.738;9.126;2022-10-16T04:52:41;2.63;;;2.43;;
665;SDS011;315;48.738;9.126;2022-10-16T04:55:06;3.93;;;2.40;;
665;SDS011;315;48.738;9.126;2022-10-16T04:57:32;2.40;;;2.20;;
665;SDS011;315;48.738;9.126;2022-10-16T04:59:58;3.73;;;2.53;;
665;SDS011;315;48.738;9.126;2022-10-16T05:02:24;2.83;;;2.57;;
665;SDS011;315;48.738;9.126;2022-10-16T05:04:49;2.60;;;2.40;;
665;SDS011;315;48.738;9.126;2022-10-16T05:07:16;2.43;;;2.20;;
665;SDS011;315;48.738;9.126;2022-10-16T05:09:41;2.43;;;2.30;;
665;SDS011;315;48.738;9.126;2022-10-16T05:12:07;2.30;;;2.10;;
665;SDS011;315;48.738;9.126;2022-10-16T05:14:32;4.03;;;2.23;;
665;SDS011;315;48.738;9.126;2022-10-16T05:16:59;3.50;;;3.00;;
665;SDS011;315;48.738;9.126;2022-10-16T05:19:25;2.43;;;2.23;;
665;SDS011;315;48.738;9.126;2022-10-16T05:21:51;7.33;;;2.50;;
665;SDS011;315;48.738;9.126;2022-10-16T05:24:16;3.03;;;2.00;;
665;SDS011;315;48.738;9.126;2022-10-16T05:26:42;5.47;;;2.87;;
665;SDS011;315;48.738;9.126;2022-10-16T05:29:07;3.40;;;2.03;;
665;SDS011;315;48.738;9.126;2022-10-16T05:31:33;6.40;;;5.80;;
665;SDS011;315;48.738;9.126;2022-10-16T05:33:59;4.63;;;3.23;;
665;SDS011;315;48.738;9.126;2022-10-16T05:36:25;3.63;;;2.23;;
665;SDS011;315;48.738;9.126;2022-10-16T05:38:50;3.67;;;2.20;;
665;SDS011;315;48.738;9.126;2022-10-16T05:41:17;2.60;;;2.13;;
665;SDS011;315;48.738;9.126;2022-10-16T05:43:47;7.17;;;3.50;;
665;SDS011;315;48.738;9.126;2022-10-16T05:46:13;3.73;;;2.57;;
665;SDS011;315;48.738;9.126;2022-10-16T05:48:39;3.73;;;2.00;;
665;SDS011;315;48.738;9.126;2022-10-16T05:51:05;4.70;;;2.47;;
665;SDS011;315;48.738;9.126;2022-10-16T05:53:33;2.53;;;2.33;;
665;SDS011;315;48.738;9.126;2022-10-16T05:55:59;5.20;;;2.63;;
665;SDS011;315;48.738;9.126;2022-10-16T05:58:28;3.23;;;2.47;;
665;SDS011;315;48.738;9.126;2022-10-16T06:00:59;3.40;;;2.17;;
665;SDS011;315;48.738;9.126;2022-10-16T06:03:26;4.07;;;2.50;;
665;SDS011;315;48.738;9.126;2022-10-16T06:05:52;3.63;;;2.37;;
665;SDS011;315;48.738;9.126;2022-10-16T06:08:19;2.43;;;2.20;;
665;SDS011;315;48.738;9.126;2022-10-16T06:10:45;9.00;;;2.30;;
665;SDS011;315;48.738;9.126;2022-10-16T06:13:12;2.60;;;2.40;;
665;SDS011;315;48.738;9.126;2022-10-16T06:15:39;6.27;;;5.70;;
665;SDS011;315;48.738;9.126;2022-10-16T06:18:06;6.03;;;4.07;;
665;SDS011;315;48.738;9.126;2022-10-16T06:20:33;3.80;;;3.30;;
665;SDS011;315;48.738;9.126;2022-10-16T06:22:59;4.50;;;3.00;;
665;SDS011;315;48.738;9.126;2022-10-16T06:25:25;2.83;;;2.63;;
665;SDS011;315;48.738;9.126;2022-10-16T06:27:50;5.90;;;4.93;;
665;SDS011;315;48.738;9.126;2022-10-16T06:30:16;8.07;;;5.57;;
665;SDS011;315;48.738;9.126;2022-10-16T06:32:41;4.13;;;2.57;;
665;SDS011;315;48.738;9.126;2022-10-16T06:35:07;3.60;;;2.93;;
665;SDS011;315;48.738;9.126;2022-10-16T06:37:32;3.77;;;3.17;;
665;SDS011;315;48.738;9.126;2022-10-16T06:39:58;4.73;;;2.40;;
665;SDS011;315;48.738;9.126;2022-10-16T06:42:24;5.23;;;2.20;;
665;SDS011;315;48.738;9.126;2022-10-16T06:44:50;3.67;;;3.33;;
665;SDS011;315;48.738;9.126;2022-10-16T06:47:16;3.57;;;2.77;;
665;SDS011;315;48.738;9.126;2022-10-16T06:49:41;8.53;;;5.37;;
665;SDS011;315;48.738;9.126;2022-10-16T06:52:07;2.77;;;2.30;;
665;SDS011;315;48.738;9.126;2022-10-16T06:54:32;3.10;;;2.43;;
665;SDS011;315;48.738;9.126;2022-10-16T06:56:58;2.80;;;2.53;;
665;SDS011;315;48.738;9.126;2022-10-16T06:59:24;4.60;;;2.47;;
665;SDS011;315;48.738;9.126;2022-10-16T07:01:50;5.47;;;2.77;;
665;SDS011;315;48.738;9.126;2022-10-16T07:04:16;3.80;;;2.43;;
665;SDS011;315;48.738;9.126;2022-10-16T07:06:41;4.40;;;3.63;;
665;SDS011;315;48.738;9.126;2022-10-16T07:09:09;3.20;;;2.90;;
665;SDS011;315;48.738;9.126;2022-10-16T07:11:36;5.00;;;3.30;;
665;SDS011;315;48.738;9.126;2022-10-16T07:14:03;3.70;;;3.40;;
665;SDS011;315;48.738;9.126;2022-10-16T07:16:30;3.53;;;3.20;;
665;SDS011;315;48.738;9.126;2022-10-16T07:18:58;6.50;;;2.70;;
665;SDS011;315;48.738;9.126;2022-10-16T07:21:32;3.13;;;2.87;;
665;SDS011;315;48.738;9.126;2022-10-16T07:24:02;4.03;;;3.23;;
665;SDS011;315;48.738;9.126;2022-10-16T07:26:30;3.57;;;2.60;;
665;SDS011;315;48.738;9.126;2022-10-16T07:28:57;3.93;;;2.93;;
665;SDS011;315;48.738;9.126;2022-10-16T07:31:23;2.97;;;2.70;;
665;SDS011;315;48.738;9.126;2022-10-16T07:33:49;4.23;;;3.20;;
665;SDS011;315;48.738;9.126;2022-10-16T07:36:17;3.13;;;2.93;;
665;SDS011;315;48.738;9.126;2022-10-16T07:38:43;3.60;;;3.10;;
665;SDS011;315;48.738;9.126;2022-10-16T07:41:11;9.90;;;2.40;;
665;SDS011;315;48.738;9.126;2022-10-16T07:43:38;3.60;;;3.30;;
665;SDS011;315;48.738;9.126;2022-10-16T07:46:04;5.83;;;3.87;;
665;SDS011;315;48.738;9.126;2022-10-16T07:48:31;5.63;;;3.70;;
665;SDS011;315;48.738;9.126;2022-10-16T07:51:02;3.83;;;3.10;;
665;SDS011;315;48.738;9.126;2022-10-16T07:53:30;3.93;;;3.63;;
665;SDS011;315;48.738;9.126;2022-10-16T07:55:59;3.43;;;3.13;;
665;SDS011;315;48.738;9.126;2022-10-16T07:58:29;3.90;;;3.00;;
665;SDS011;315;48.738;9.126;2022-10-16T08:00:56;3.50;;;2.50;;
665;SDS011;315;48.738;9.126;2022-10-16T08:03:23;6.00;;;2.60;;
665;SDS011;315;48.738;9.126;2022-10-16T08:05:49;4.23;;;3.00;;
665;SDS011;315;48.738;9.126;2022-10-16T08:08:15;3.30;;;2.80;;
665;SDS011;315;48.738;9.126;2022-10-16T08:10:42;3.27;;;2.90;;
665;SDS011;315;48.738;9.126;2022-10-16T08:13:07;8.03;;;2.90;;
665;SDS011;315;48.738;9.126;2022-10-16T08:15:33;3.13;;;2.47;;
665;SDS011;315;48.738;9.126;2022-10-16T08:18:00;6.00;;;3.10;;
665;SDS011;315;48.738;9.126;2022-10-16T08:20:27;11.00;;;8.37;;
665;SDS011;315;48.738;9.126;2022-10-16T08:22:54;2.77;;;2.47;;
665;SDS011;315;48.738;9.126;2022-10-16T08:25:21;4.50;;;2.47;;
665;SDS011;315;48.738;9.126;2022-10-16T08:27:47;3.20;;;2.80;;
665;SDS011;315;48.738;9.126;2022-10-16T08:30:13;5.67;;;2.23;;
665;SDS011;315;48.738;9.126;2022-10-16T08:32:39;2.67;;;2.10;;
665;SDS011;315;48.738;9.126;2022-10-16T08:35:06;5.67;;;2.10;;
665;SDS011;315;48.738;9.126;2022-10-16T08:37:33;3.27;;;2.50;;
665;SDS011;315;48.738;9.126;2022-10-16T08:39:58;10.07;;;3.60;;
665;SDS011;315;48.738;9.126;2022-10-16T08:45:15;5.60;;;2.07;;
665;SDS011;315;48.738;9.126;2022-10-16T08:50:39;6.20;;;2.37;;
665;SDS011;315;48.738;9.126;2022-10-16T08:53:05;2.70;;;2.47;;
665;SDS011;315;48.738;9.126;2022-10-16T08:55:37;3.50;;;2.57;;
665;SDS011;315;48.738;9.126;2022-10-16T08:58:17;2.37;;;2.17;;
665;SDS011;315;48.738;9.126;2022-10-16T09:00:48;2.60;;;2.30;;
665;SDS011;315;48.738;9.126;2022-10-16T09:16:30;3.70;;;2.80;;
665;SDS011;315;48.738;9.126;2022-10-16T09:21:44;2.43;;;2.33;;
665;SDS011;315;48.738;9.126;2022-10-16T09:24:15;2.97;;;2.20;;
665;SDS011;315;48.738;9.126;2022-10-16T09:26:43;3.13;;;2.37;;
665;SDS011;315;48.738;9.126;2022-10-16T09:29:13;4.27;;;2.20;;
665;SDS011;315;48.738;9.126;2022-10-16T09:31:41;2.10;;;2.00;;
665;SDS011;315;48.738;9.126;2022-10-16T09:34:11;2.07;;;1.77;;
665;SDS011;315;48.738;9.126;2022-10-16T09:36:43;2.97;;;1.60;;
665;SDS011;315;48.738;9.126;2022-10-16T09:39:11;2.03;;;1.90;;
665;SDS011;315;48.738;9.126;2022-10-16T09:41:38;2.80;;;2.03;;
665;SDS011;315;48.738;9.126;2022-10-16T09:44:15;2.60;;;2.40;;
665;SDS011;315;48.738;9.126;2022-10-16T09:46:48;3.13;;;1.83;;
665;SDS011;315;48.738;9.126;2022-10-16T09:49:24;5.20;;;2.33;;
665;SDS011;315;48.738;9.126;2022-10-16T09:52:02;2.87;;;1.90;;
665;SDS011;315;48.738;9.126;2022-10-16T09:54:36;5.53;;;2.60;;
665;SDS011;315;48.738;9.126;2022-10-16T09:57:05;2.50;;;2.30;;
665;SDS011;315;48.738;9.126;2022-10-16T09:59:32;4.70;;;1.90;;
665;SDS011;315;48.738;9.126;2022-10-16T10:02:01;2.10;;;1.90;;
665;SDS011;315;48.738;9.126;2022-10-16T10:04:37;2.73;;;2.20;;
665;SDS011;315;48.738;9.126;2022-10-16T10:07:05;1.77;;;1.67;;
665;SDS011;315;48.738;9.126;2022-10-16T10:09:42;3.70;;;2.27;;
665;SDS011;315;48.738;9.126;2022-10-16T10:12:17;2.37;;;2.17;;
665;SDS011;315;48.738;9.126;2022-10-16T10:14:52;2.80;;;2.17;;
665;SDS011;315;48.738;9.126;2022-10-16T10:17:23;2.37;;;2.10;;
665;SDS011;315;48.738;9.126;2022-10-16T10:33:27;2.63;;;1.93;;
665;SDS011;315;48.738;9.126;2022-10-16T10:53:31;3.83;;;1.70;;
665;SDS011;315;48.738;9.126;2022-10-16T11:01:30;2.50;;;1.80;;
665;SDS011;315;48.738;9.126;2022-10-16T11:04:34;2.27;;;1.73;;
665;SDS011;315;48.738;9.126;2022-10-16T11:07:37;2.47;;;1.43;;
665;SDS011;315;48.738;9.126;2022-10-16T11:10:12;3.40;;;2.87;;
665;SDS011;315;48.738;9.126;2022-10-16T11:12:46;5.13;;;1.83;;
665;SDS011;315;48.738;9.126;2022-10-16T11:15:19;2.40;;;1.53;;
665;SDS011;315;48.738;9.126;2022-10-16T11:17:57;2.50;;;1.60;;
665;SDS011;315;48.738;9.126;2022-10-16T11:20:51;3.00;;;1.70;;
665;SDS011;315;48.738;9.126;2022-10-16T11:23:28;2.00;;;1.90;;
665;SDS011;315;48.738;9.126;2022-10-16T11:26:00;2.43;;;1.90;;
665;SDS011;315;48.738;9.126;2022-10-16T11:30:57;4.50;;;2.30;;
665;SDS011;315;48.738;9.126;2022-10-16T11:38:34;1.97;;;1.87;;
665;SDS011;315;48.738;9.126;2022-10-16T11:41:03;2.30;;;1.70;;
665;SDS011;315;48.738;9.126;2022-10-16T11:43:43;5.83;;;2.60;;
665;SDS011;315;48.738;9.126;2022-10-16T11:46:16;2.30;;;2.20;;
665;SDS011;315;48.738;9.126;2022-10-16T11:48:48;1.80;;;1.70;;
665;SDS011;315;48.738;9.126;2022-10-16T11:51:30;2.80;;;2.37;;
665;SDS011;315;48.738;9.126;2022-10-16T11:56:41;1.93;;;1.80;;
665;SDS011;315;48.738;9.126;2022-10-16T11:59:16;2.37;;;2.27;;
665;SDS011;315;48.738;9.126;2022-10-16T12:04:59;8.90;;;1.80;;
665;SDS011;315;48.738;9.126;2022-10-16T12:07:32;3.27;;;1.77;;
665;SDS011;315;48.738;9.126;2022-10-16T12:10:17;4.33;;;1.70;;
665;SDS011;315;48.738;9.126;2022-10-16T12:12:45;2.50;;;2.30;;
665;SDS011;315;48.738;9.126;2022-10-16T12:15:22;2.40;;;2.20;;
665;SDS011;315;48.738;9.126;2022-10-16T12:17:48;2.13;;;1.93;;
665;SDS011;315;48.738;9.126;2022-10-16T12:20:19;2.90;;;1.80;;
665;SDS011;315;48.738;9.126;2022-10-16T12:23:04;1.60;;;1.50;;
665;SDS011;315;48.738;9.126;2022-10-16T12:25:31;1.90;;;1.80;;
665;SDS011;315;48.738;9.126;2022-10-16T12:30:40;2.10;;;1.90;;
665;SDS011;315;48.738;9.126;2022-10-16T12:33:20;2.83;;;2.27;;
665;SDS011;315;48.738;9.126;2022-10-16T12:35:51;1.67;;;1.57;;
665;SDS011;315;48.738;9.126;2022-10-16T12:38:18;1.90;;;1.80;;
665;SDS011;315;48.738;9.126;2022-10-16T12:40:46;2.20;;;2.00;;
665;SDS011;315;48.738;9.126;2022-10-16T12:43:34;2.20;;;2.00;;
665;SDS011;315;48.738;9.126;2022-10-16T12:48:37;2.30;;;2.10;;
665;SDS011;315;48.738;9.126;2022-10-16T12:51:10;1.80;;;1.70;;
665;SDS011;315;48.738;9.126;2022-10-16T12:53:37;2.57;;;2.23;;
665;SDS011;315;48.738;9.126;2022-10-16T12:56:04;2.30;;;2.10;;
665;SDS011;315;48.738;9.126;2022-10-16T12:58:37;4.20;;;2.70;;
665;SDS011;315;48.738;9.126;2022-10-16T13:01:32;3.10;;;2.00;;
665;SDS011;315;48.738;9.126;2022-10-16T13:09:40;3.33;;;2.10;;
665;SDS011;315;48.738;9.126;2022-10-16T13:12:40;3.30;;;2.20;;
665;SDS011;315;48.738;9.126;2022-10-16T13:15:48;2.30;;;2.10;;
665;SDS011;315;48.738;9.126;2022-10-16T13:18:29;3.10;;;2.80;;
665;SDS011;315;48.738;9.126;2022-10-16T13:26:39;4.77;;;2.70;;
665;SDS011;315;48.738;9.126;2022-10-16T13:29:24;4.27;;;3.40;;
665;SDS011;315;48.738;9.126;2022-10-16T13:31:55;3.27;;;2.50;;
665;SDS011;315;48.738;9.126;2022-10-16T13:34:22;5.40;;;3.37;;
665;SDS011;315;48.738;9.126;2022-10-16T13:36:49;2.90;;;2.60;;
665;SDS011;315;48.738;9.126;2022-10-16T13:44:35;2.70;;;2.50;;
665;SDS011;315;48.738;9.126;2022-10-16T13:47:05;2.53;;;2.33;;
665;SDS011;315;48.738;9.126;2022-10-16T13:49:39;5.60;;;2.90;;
665;SDS011;315;48.738;9.126;2022-10-16T13:52:05;2.80;;;2.23;;
665;SDS011;315;48.738;9.126;2022-10-16T13:54:30;3.90;;;2.80;;
665;SDS011;315;48.738;9.126;2022-10-16T13:56:56;6.93;;;4.83;;
665;SDS011;315;48.738;9.126;2022-10-16T13:59:33;3.63;;;3.03;;
665;SDS011;315;48.738;9.126;2022-10-16T14:01:59;3.17;;;2.87;;
665;SDS011;315;48.738;9.126;2022-10-16T14:04:31;2.80;;;2.60;;
665;SDS011;315;48.738;9.126;2022-10-16T14:06:58;2.23;;;2.13;;
665;SDS011;315;48.738;9.126;2022-10-16T14:09:27;3.30;;;2.53;;
665;SDS011;315;48.738;9.126;2022-10-16T14:11:59;2.93;;;2.33;;
665;SDS011;315;48.738;9.126;2022-10-16T14:14:27;3.23;;;2.90;;
665;SDS011;315;48.738;9.126;2022-10-16T14:16:59;3.37;;;2.50;;
665;SDS011;315;48.738;9.126;2022-10-16T14:19:25;10.63;;;3.53;;
665;SDS011;315;48.738;9.126;2022-10-16T14:21:53;2.77;;;2.20;;
665;SDS011;315;48.738;9.126;2022-10-16T14:26:58;7.63;;;2.63;;
665;SDS011;315;48.738;9.126;2022-10-16T14:29:25;2.90;;;2.70;;
665;SDS011;315;48.738;9.126;2022-10-16T14:32:02;2.00;;;1.90;;
665;SDS011;315;48.738;9.126;2022-10-16T14:34:31;4.37;;;3.23;;
665;SDS011;315;48.738;9.126;2022-10-16T14:37:41;4.40;;;2.73;;
665;SDS011;315;48.738;9.126;2022-10-16T14:39:52;3.87;;;3.37;;
665;SDS011;315;48.738;9.126;2022-10-16T14:42:20;3.50;;;3.00;;
665;SDS011;315;48.738;9.126;2022-10-16T14:44:49;5.33;;;2.63;;
665;SDS011;315;48.738;9.126;2022-10-16T14:47:18;4.23;;;2.80;;
665;SDS011;315;48.738;9.126;2022-10-16T14:49:49;8.10;;;3.20;;
665;SDS011;315;48.738;9.126;2022-10-16T14:52:14;4.33;;;2.67;;
665;SDS011;315;48.738;9.126;2022-10-16T14:54:40;3.40;;;2.90;;
665;SDS011;315;48.738;9.126;2022-10-16T14:57:06;2.87;;;2.67;;
665;SDS011;315;48.738;9.126;2022-10-16T14:59:42;3.20;;;2.70;;
665;SDS011;315;48.738;9.126;2022-10-16T15:02:20;5.20;;;2.50;;
665;SDS011;315;48.738;9.126;2022-10-16T15:04:50;3.23;;;2.40;;
665;SDS011;315;48.738;9.126;2022-10-16T15:07:16;3.33;;;3.00;;
665;SDS011;315;48.738;9.126;2022-10-16T15:09:42;3.00;;;2.80;;
665;SDS011;315;48.738;9.126;2022-10-16T15:12:07;4.87;;;2.70;;
665;SDS011;315;48.738;9.126;2022-10-16T15:14:33;2.97;;;2.67;;
665;SDS011;315;48.738;9.126;2022-10-16T15:16:59;6.27;;;2.53;;
665;SDS011;315;48.738;9.126;2022-10-16T15:19:24;2.77;;;2.57;;
665;SDS011;315;48.738;9.126;2022-10-16T15:21:50;3.37;;;2.90;;
665;SDS011;315;48.738;9.126;2022-10-16T15:24:16;3.20;;;2.90;;
665;SDS011;315;48.738;9.126;2022-10-16T15:26:41;3.73;;;3.30;;
665;SDS011;315;48.738;9.126;2022-10-16T15:29:07;6.60;;;3.00;;
665;SDS011;315;48.738;9.126;2022-10-16T15:31:33;5.93;;;5.43;;
665;SDS011;315;48.738;9.126;2022-10-16T15:33:59;3.37;;;3.07;;
665;SDS011;315;48.738;9.126;2022-10-16T15:36:29;6.97;;;3.80;;
665;SDS011;315;48.738;9.126;2022-10-16T15:38:58;4.17;;;3.87;;
665;SDS011;315;48.738;9.126;2022-10-16T15:41:24;6.53;;;3.30;;
665;SDS011;315;48.738;9.126;2022-10-16T15:43:50;3.30;;;3.10;;
665;SDS011;315;48.738;9.126;2022-10-16T15:46:17;4.50;;;3.90;;
665;SDS011;315;48.738;9.126;2022-10-16T15:48:45;3.03;;;2.83;;
665;SDS011;315;48.738;9.126;2022-10-16T15:51:14;9.43;;;6.97;;
665;SDS011;315;48.738;9.126;2022-10-16T15:53:41;8.30;;;3.63;;
665;SDS011;315;48.738;9.126;2022-10-16T15:56:07;3.80;;;3.50;;
665;SDS011;315;48.738;9.126;2022-10-16T15:58:34;4.17;;;3.70;;
665;SDS011;315;48.738;9.126;2022-10-16T16:01:00;6.67;;;4.40;;
665;SDS011;315;48.738;9.126;2022-10-16T16:03:27;3.67;;;2.87;;
665;SDS011;315;48.738;9.126;2022-10-16T16:05:53;24.47;;;21.20;;
665;SDS011;315;48.738;9.126;2022-10-16T16:08:19;40.87;;;34.83;;
665;SDS011;315;48.738;9.126;2022-10-16T16:10:45;25.70;;;22.20;;
665;SDS011;315;48.738;9.126;2022-10-16T16:13:10;29.63;;;23.87;;
665;SDS011;315;48.738;9.126;2022-10-16T16:15:39;21.97;;;16.50;;
665;SDS011;315;48.738;9.126;2022-10-16T16:18:05;40.43;;;36.33;;
665;SDS011;315;48.738;9.126;2022-10-16T16:20:31;45.70;;;40.90;;
665;SDS011;315;48.738;9.126;2022-10-16T16:22:57;39.27;;;35.20;;
665;SDS011;315;48.738;9.126;2022-10-16T16:25:22;37.77;;;32.60;;
665;SDS011;315;48.738;9.126;2022-10-16T16:27:48;29.90;;;25.63;;
665;SDS011;315;48.738;9.126;2022-10-16T16:30:14;13.93;;;11.40;;
665;SDS011;315;48.738;9.126;2022-10-16T16:32:39;24.33;;;21.10;;
665;SDS011;315;48.738;9.126;2022-10-16T16:35:05;57.70;;;38.77;;
665;SDS011;315;48.738;9.126;2022-10-16T16:37:31;33.67;;;22.03;;
665;SDS011;315;48.738;9.126;2022-10-16T16:39:56;8.50;;;6.50;;
665;SDS011;315;48.738;9.126;2022-10-16T16:42:26;12.87;;;10.20;;
665;SDS011;315;48.738;9.126;2022-10-16T16:44:52;21.83;;;12.37;;
665;SDS011;315;48.738;9.126;2022-10-16T16:47:18;10.80;;;9.30;;
665;SDS011;315;48.738;9.126;2022-10-16T16:49:44;8.10;;;5.33;;
665;SDS011;315;48.738;9.126;2022-10-16T16:52:11;9.13;;;8.23;;
665;SDS011;315;48.738;9.126;2022-10-16T16:54:36;10.33;;;7.90;;
665;SDS011;315;48.738;9.126;2022-10-16T16:57:02;15.87;;;9.10;;
665;SDS011;315;48.738;9.126;2022-10-16T16:59:29;9.30;;;5.23;;
665;SDS011;315;48.738;9.126;2022-10-16T17:01:57;4.53;;;3.37;;
665;SDS011;315;48.738;9.126;2022-10-16T17:04:23;4.63;;;4.07;;
665;SDS011;315;48.738;9.126;2022-10-16T17:06:49;5.23;;;4.77;;
665;SDS011;315;48.738;9.126;2022-10-16T17:09:15;9.33;;;4.70;;
665;SDS011;315;48.738;9.126;2022-10-16T17:11:40;7.30;;;4.33;;
665;SDS011;315;48.738;9.126;2022-10-16T17:14:07;4.87;;;4.37;;
665;SDS011;315;48.738;9.126;2022-10-16T17:16:35;5.23;;;4.77;;
665;SDS011;315;48.738;9.126;2022-10-16T17:19:05;6.23;;;5.00;;
665;SDS011;315;48.738;9.126;2022-10-16T17:21:33;12.50;;;3.93;;
665;SDS011;315;48.738;9.126;2022-10-16T17:23:59;9.40;;;8.60;;
665;SDS011;315;48.738;9.126;2022-10-16T17:26:25;8.70;;;5.27;;
665;SDS011;315;48.738;9.126;2022-10-16T17:28:52;36.67;;;33.03;;
665;SDS011;315;48.738;9.126;2022-10-16T17:31:21;23.57;;;21.67;;
665;SDS011;315;48.738;9.126;2022-10-16T17:33:53;11.80;;;10.63;;
665;SDS011;315;48.738;9.126;2022-10-16T17:36:19;12.90;;;11.60;;
665;SDS011;315;48.738;9.126;2022-10-16T17:38:45;11.53;;;8.40;;
665;SDS011;315;48.738;9.126;2022-10-16T17:43:41;9.13;;;4.83;;